createdAt,value
2019-02-28T00:07:38.047Z,100.00
2019-02-28T00:17:42.868Z,100.00
2019-02-28T00:27:43.119Z,100.00
2019-02-28T00:37:46.741Z,100.00
2019-02-28T00:47:48.359Z,100.00
2019-02-28T00:57:49.139Z,100.00
2019-02-28T01:07:50.078Z,100.00
2019-02-28T01:17:50.920Z,100.00
2019-02-28T01:27:52.423Z,100.00
2019-02-28T01:37:55.579Z,100.00
2019-02-28T01:47:59.400Z,100.00
2019-02-28T01:58:02.429Z,100.00
2019-02-28T02:08:06.518Z,100.00
2019-02-28T02:18:09.447Z,100.00
2019-02-28T02:28:09.029Z,100.00
2019-02-28T02:38:10.562Z,100.00
2019-02-28T02:48:11.386Z,100.00
2019-02-28T02:58:12.124Z,100.00
2019-02-28T03:08:12.841Z,100.00
2019-02-28T03:18:20.434Z,100.00
2019-02-28T03:28:21.353Z,100.00
2019-02-28T03:38:22.091Z,100.00
2019-02-28T03:48:23.003Z,100.00
2019-02-28T03:58:23.842Z,100.00
2019-02-28T04:08:29.329Z,100.00
2019-02-28T04:18:27.549Z,100.00
2019-02-28T04:28:28.422Z,100.00
2019-02-28T04:38:29.676Z,100.00
2019-02-28T04:48:30.387Z,100.00
2019-02-28T04:58:31.423Z,100.00
2019-02-28T05:08:32.751Z,100.00
2019-02-28T05:18:33.674Z,100.00
2019-02-28T05:28:40.273Z,100.00
2019-02-28T05:38:37.376Z,100.00
2019-02-28T05:48:38.691Z,100.00
2019-02-28T05:58:40.180Z,100.00
2019-02-28T06:08:41.081Z,100.00
2019-02-28T06:18:41.729Z,100.00
2019-02-28T06:28:42.423Z,100.00
2019-02-28T06:38:43.121Z,100.00
2019-02-28T06:48:47.497Z,100.00
2019-02-28T06:58:48.200Z,100.00
2019-02-28T07:08:49.025Z,100.00
2019-02-28T07:18:53.808Z,100.00
2019-02-28T07:28:53.706Z,100.00
2019-02-28T07:38:54.674Z,100.00
2019-02-28T07:48:55.388Z,100.00
2019-02-28T07:58:56.365Z,100.00
2019-02-28T08:08:57.244Z,100.00
2019-02-28T08:18:57.923Z,100.00
2019-02-28T08:28:58.974Z,100.00
2019-02-28T08:38:59.667Z,100.00
2019-02-28T08:49:06.304Z,100.00
2019-02-28T08:59:11.518Z,100.00
2019-02-28T09:09:08.934Z,98.00
2019-02-28T09:19:09.621Z,94.74
2019-02-28T09:29:10.366Z,93.18
2019-02-28T09:39:11.107Z,90.12
2019-02-28T09:49:12.964Z,92.07
2019-02-28T09:59:16.711Z,86.95
2019-02-28T10:09:17.762Z,89.21
2019-02-28T10:19:18.448Z,87.68
2019-02-28T10:29:19.177Z,84.02
2019-02-28T10:39:19.952Z,85.87
2019-02-28T10:49:21.092Z,88.14
2019-02-28T10:59:24.427Z,83.78
2019-02-28T11:09:25.997Z,81.54
2019-02-28T11:19:26.863Z,81.14
2019-02-28T11:29:27.510Z,80.06
2019-02-28T11:39:33.798Z,78.56
2019-02-28T11:49:34.704Z,77.75
2019-02-28T11:59:35.692Z,78.01
2019-02-28T12:09:36.771Z,73.59
2019-02-28T12:19:37.433Z,73.63
2019-02-28T12:29:40.893Z,69.82
2019-02-28T12:39:41.594Z,69.21
2019-02-28T12:49:42.376Z,70.27
2019-02-28T12:59:46.051Z,71.88
2019-02-28T13:09:48.224Z,69.63
2019-02-28T13:19:53.229Z,70.24
2019-02-28T13:29:53.709Z,70.88
2019-02-28T13:39:54.389Z,71.32
2019-02-28T13:49:55.187Z,70.77
2019-02-28T13:59:55.822Z,71.59
2019-02-28T14:09:58.171Z,71.66
2019-02-28T14:20:03.696Z,69.71
2019-02-28T14:30:16.157Z,71.34
2019-02-28T14:40:17.791Z,73.68
2019-02-28T14:50:19.997Z,76.88
2019-02-28T15:00:22.851Z,78.31
2019-02-28T15:10:25.575Z,78.25
2019-02-28T15:20:31.524Z,84.35
2019-02-28T15:30:39.670Z,84.21
2019-02-28T15:40:42.312Z,85.83
2019-02-28T15:50:42.986Z,81.49
2019-02-28T16:00:43.712Z,100.00
2019-02-28T16:10:52.867Z,100.00
2019-02-28T16:20:47.511Z,100.00
2019-02-28T16:30:48.212Z,100.00
2019-02-28T16:40:49.232Z,100.00
2019-02-28T16:50:50.715Z,100.00
2019-02-28T17:00:52.852Z,94.65
2019-02-28T17:10:54.773Z,98.86
2019-02-28T17:20:55.525Z,100.00
2019-02-28T17:30:56.253Z,100.00
2019-02-28T17:40:58.791Z,100.00
2019-02-28T17:51:06.207Z,100.00
2019-02-28T18:01:25.385Z,100.00
2019-02-28T18:11:35.951Z,100.00
2019-02-28T18:21:41.013Z,100.00
2019-02-28T18:31:42.565Z,100.00
2019-02-28T18:41:43.342Z,100.00
2019-02-28T18:52:10.576Z,100.00
2019-02-28T19:02:11.245Z,100.00
2019-02-28T19:12:13.856Z,100.00
2019-02-28T19:22:14.566Z,100.00
2019-02-28T19:32:15.328Z,100.00
2019-02-28T19:42:16.652Z,100.00
2019-02-28T19:52:17.666Z,100.00
2019-02-28T20:02:21.213Z,100.00
2019-02-28T20:12:22.077Z,100.00
2019-02-28T20:22:23.014Z,100.00
2019-02-28T20:32:23.787Z,100.00
2019-02-28T20:42:25.839Z,100.00
2019-02-28T20:52:26.594Z,100.00
2019-02-28T21:02:27.358Z,100.00
2019-02-28T21:12:29.302Z,100.00
2019-02-28T21:22:30.161Z,100.00
2019-02-28T21:32:30.814Z,100.00
2019-02-28T21:42:31.466Z,100.00
2019-02-28T21:52:32.211Z,100.00
2019-02-28T22:02:32.964Z,100.00
2019-02-28T22:12:33.975Z,100.00
2019-02-28T22:22:34.682Z,100.00
2019-02-28T22:32:35.630Z,100.00
2019-02-28T22:42:36.653Z,100.00
2019-02-28T22:52:37.741Z,100.00
2019-02-28T23:02:38.855Z,100.00
2019-02-28T23:12:39.521Z,100.00
2019-02-28T23:22:40.228Z,100.00
2019-02-28T23:32:44.927Z,100.00
2019-02-28T23:42:45.761Z,100.00
2019-02-28T23:52:46.521Z,100.00
